Terminal Aerodrome Forecast
Issued by NWS Mt. Holly, NJ

Home | Current Version | Previous Version | Text Only | Print | Product List | Glossary On
Versions: 1 2 3 4 5 6 7 8 9 10 11 12 13 14 15 16 17 18
157
FTUS41 KPHI 011735
TAFABE
TAF
KABE 011735Z 0118/0218 21012G20KT P6SM BKN025
     FM011900 23012G20KT P6SM SCT015 BKN050
      TEMPO 0119/0121 3SM TSRA BR OVC015CB
     FM012100 25010G18KT P6SM BKN035
      TEMPO 0200/0204 -SHRA OVC015
     FM020400 27014G22KT P6SM BKN050
     FM021400 29020G32KT P6SM SCT050=

USA.gov is the U.S. government's official web portal to all federal, state and local government web resources and services.